sensor_id;sensor_type;location;lat;lon;timestamp;temperature;humidity
51007;DHT22;37034;47.886;-3.904;2023-02-15T00:00:34;12.70;96.00
51007;DHT22;37034;47.886;-3.904;2023-02-15T00:03:01;12.60;96.10
51007;DHT22;37034;47.886;-3.904;2023-02-15T00:05:47;13.00;95.60
51007;DHT22;37034;47.886;-3.904;2023-02-15T00:08:14;12.90;95.80
51007;DHT22;37034;47.886;-3.904;2023-02-15T00:10:44;12.90;96.20
51007;DHT22;37034;47.886;-3.904;2023-02-15T00:13:11;12.90;95.70
51007;DHT22;37034;47.886;-3.904;2023-02-15T00:15:37;13.10;96.50
51007;DHT22;37034;47.886;-3.904;2023-02-15T00:18:08;13.00;95.90
51007;DHT22;37034;47.886;-3.904;2023-02-15T00:20:43;12.80;95.60
51007;DHT22;37034;47.886;-3.904;2023-02-15T00:23:38;13.70;95.80
51007;DHT22;37034;47.886;-3.904;2023-02-15T00:26:11;12.70;96.30
51007;DHT22;37034;47.886;-3.904;2023-02-15T00:29:14;12.70;95.80
51007;DHT22;37034;47.886;-3.904;2023-02-15T00:32:16;13.10;95.80
51007;DHT22;37034;47.886;-3.904;2023-02-15T00:34:42;13.20;95.90
51007;DHT22;37034;47.886;-3.904;2023-02-15T00:37:08;12.80;96.10
51007;DHT22;37034;47.886;-3.904;2023-02-15T00:39:34;12.70;96.30
51007;DHT22;37034;47.886;-3.904;2023-02-15T00:42:18;12.70;96.40
51007;DHT22;37034;47.886;-3.904;2023-02-15T00:45:14;12.80;95.90
51007;DHT22;37034;47.886;-3.904;2023-02-15T00:48:02;12.90;96.20
51007;DHT22;37034;47.886;-3.904;2023-02-15T00:50:57;13.20;96.20
51007;DHT22;37034;47.886;-3.904;2023-02-15T01:04:40;12.60;95.80
51007;DHT22;37034;47.886;-3.904;2023-02-15T01:07:06;13.10;96.50
51007;DHT22;37034;47.886;-3.904;2023-02-15T01:09:33;13.10;96.40
51007;DHT22;37034;47.886;-3.904;2023-02-15T01:11:59;13.10;96.60
51007;DHT22;37034;47.886;-3.904;2023-02-15T01:14:39;13.10;96.60
51007;DHT22;37034;47.886;-3.904;2023-02-15T01:17:28;13.10;96.00
51007;DHT22;37034;47.886;-3.904;2023-02-15T01:19:54;12.60;96.40
51007;DHT22;37034;47.886;-3.904;2023-02-15T01:22:20;12.60;96.40
51007;DHT22;37034;47.886;-3.904;2023-02-15T01:24:49;12.60;96.20
51007;DHT22;37034;47.886;-3.904;2023-02-15T01:27:15;12.60;96.40
51007;DHT22;37034;47.886;-3.904;2023-02-15T01:29:41;12.70;96.60
51007;DHT22;37034;47.886;-3.904;2023-02-15T01:32:08;13.00;96.60
51007;DHT22;37034;47.886;-3.904;2023-02-15T01:34:35;12.70;96.50
51007;DHT22;37034;47.886;-3.904;2023-02-15T01:37:01;12.60;96.80
51007;DHT22;37034;47.886;-3.904;2023-02-15T01:39:27;12.70;96.50
51007;DHT22;37034;47.886;-3.904;2023-02-15T01:41:53;12.60;96.40
51007;DHT22;37034;47.886;-3.904;2023-02-15T01:44:48;12.60;96.40
51007;DHT22;37034;47.886;-3.904;2023-02-15T01:47:55;12.60;96.20
51007;DHT22;37034;47.886;-3.904;2023-02-15T01:50:29;12.60;96.20
51007;DHT22;37034;47.886;-3.904;2023-02-15T01:53:09;12.60;96.50
51007;DHT22;37034;47.886;-3.904;2023-02-15T01:55:40;12.60;96.20
51007;DHT22;37034;47.886;-3.904;2023-02-15T01:58:08;12.60;96.20
51007;DHT22;37034;47.886;-3.904;2023-02-15T02:00:34;12.60;96.10
51007;DHT22;37034;47.886;-3.904;2023-02-15T02:03:01;12.60;96.10
51007;DHT22;37034;47.886;-3.904;2023-02-15T02:05:29;12.50;96.00
51007;DHT22;37034;47.886;-3.904;2023-02-15T02:07:56;12.50;96.00
51007;DHT22;37034;47.886;-3.904;2023-02-15T02:10:24;12.50;96.10
51007;DHT22;37034;47.886;-3.904;2023-02-15T02:13:01;12.50;96.10
51007;DHT22;37034;47.886;-3.904;2023-02-15T02:15:43;12.40;96.10
51007;DHT22;37034;47.886;-3.904;2023-02-15T02:18:27;12.40;96.30
51007;DHT22;37034;47.886;-3.904;2023-02-15T02:21:19;12.40;95.90
51007;DHT22;37034;47.886;-3.904;2023-02-15T02:40:40;11.90;96.00
51007;DHT22;37034;47.886;-3.904;2023-02-15T02:43:28;11.90;96.00
51007;DHT22;37034;47.886;-3.904;2023-02-15T02:45:58;11.80;95.90
51007;DHT22;37034;47.886;-3.904;2023-02-15T02:48:27;11.80;95.80
51007;DHT22;37034;47.886;-3.904;2023-02-15T02:50:54;11.70;95.80
51007;DHT22;37034;47.886;-3.904;2023-02-15T02:53:20;11.70;95.90
51007;DHT22;37034;47.886;-3.904;2023-02-15T02:58:55;11.60;96.00
51007;DHT22;37034;47.886;-3.904;2023-02-15T03:04:32;11.50;96.20
51007;DHT22;37034;47.886;-3.904;2023-02-15T03:07:01;11.50;96.20
51007;DHT22;37034;47.886;-3.904;2023-02-15T03:09:29;11.40;96.30
51007;DHT22;37034;47.886;-3.904;2023-02-15T03:12:00;11.40;96.30
51007;DHT22;37034;47.886;-3.904;2023-02-15T03:14:48;11.40;96.30
51007;DHT22;37034;47.886;-3.904;2023-02-15T03:17:23;11.40;96.10
51007;DHT22;37034;47.886;-3.904;2023-02-15T03:19:53;11.40;96.10
51007;DHT22;37034;47.886;-3.904;2023-02-15T03:22:54;11.20;96.40
51007;DHT22;37034;47.886;-3.904;2023-02-15T03:25:25;11.30;96.10
51007;DHT22;37034;47.886;-3.904;2023-02-15T03:27:58;11.20;96.10
51007;DHT22;37034;47.886;-3.904;2023-02-15T03:30:25;11.20;96.10
51007;DHT22;37034;47.886;-3.904;2023-02-15T03:32:53;11.20;96.40
51007;DHT22;37034;47.886;-3.904;2023-02-15T03:35:22;11.10;96.40
51007;DHT22;37034;47.886;-3.904;2023-02-15T03:38:00;11.00;96.20
51007;DHT22;37034;47.886;-3.904;2023-02-15T03:40:37;11.00;96.30
51007;DHT22;37034;47.886;-3.904;2023-02-15T03:46:11;10.90;96.20
51007;DHT22;37034;47.886;-3.904;2023-02-15T03:48:43;10.90;96.00
51007;DHT22;37034;47.886;-3.904;2023-02-15T03:51:15;10.90;96.10
51007;DHT22;37034;47.886;-3.904;2023-02-15T03:54:13;10.80;96.10
51007;DHT22;37034;47.886;-3.904;2023-02-15T03:57:01;10.90;96.20
51007;DHT22;37034;47.886;-3.904;2023-02-15T04:02:55;10.70;96.20
51007;DHT22;37034;47.886;-3.904;2023-02-15T04:05:24;10.80;96.40
51007;DHT22;37034;47.886;-3.904;2023-02-15T04:07:50;10.80;96.50
51007;DHT22;37034;47.886;-3.904;2023-02-15T04:10:15;10.80;96.40
51007;DHT22;37034;47.886;-3.904;2023-02-15T04:13:00;10.80;96.30
51007;DHT22;37034;47.886;-3.904;2023-02-15T04:15:25;10.90;96.40
51007;DHT22;37034;47.886;-3.904;2023-02-15T04:18:10;10.90;96.30
51007;DHT22;37034;47.886;-3.904;2023-02-15T04:20:35;10.90;96.30
51007;DHT22;37034;47.886;-3.904;2023-02-15T04:23:20;10.90;96.20
51007;DHT22;37034;47.886;-3.904;2023-02-15T04:26:04;10.90;96.20
51007;DHT22;37034;47.886;-3.904;2023-02-15T04:28:30;10.90;96.20
51007;DHT22;37034;47.886;-3.904;2023-02-15T04:30:56;10.90;96.30
51007;DHT22;37034;47.886;-3.904;2023-02-15T04:33:21;10.90;96.20
51007;DHT22;37034;47.886;-3.904;2023-02-15T04:35:47;10.90;96.20
51007;DHT22;37034;47.886;-3.904;2023-02-15T04:38:13;10.90;96.20
51007;DHT22;37034;47.886;-3.904;2023-02-15T04:40:38;10.90;96.20
51007;DHT22;37034;47.886;-3.904;2023-02-15T04:43:04;10.90;96.30
51007;DHT22;37034;47.886;-3.904;2023-02-15T04:45:30;10.90;96.20
51007;DHT22;37034;47.886;-3.904;2023-02-15T04:47:55;10.90;96.30
51007;DHT22;37034;47.886;-3.904;2023-02-15T04:50:21;10.90;96.20
51007;DHT22;37034;47.886;-3.904;2023-02-15T04:52:47;10.90;96.20
51007;DHT22;37034;47.886;-3.904;2023-02-15T04:55:13;10.90;96.20
51007;DHT22;37034;47.886;-3.904;2023-02-15T04:57:39;10.90;96.20
51007;DHT22;37034;47.886;-3.904;2023-02-15T05:00:05;10.90;96.30
51007;DHT22;37034;47.886;-3.904;2023-02-15T05:02:31;10.90;96.20
51007;DHT22;37034;47.886;-3.904;2023-02-15T05:04:57;11.00;96.20
51007;DHT22;37034;47.886;-3.904;2023-02-15T05:07:23;11.00;96.20
51007;DHT22;37034;47.886;-3.904;2023-02-15T05:09:48;11.00;96.10
51007;DHT22;37034;47.886;-3.904;2023-02-15T05:12:14;10.90;96.00
51007;DHT22;37034;47.886;-3.904;2023-02-15T05:14:40;10.90;95.90
51007;DHT22;37034;47.886;-3.904;2023-02-15T05:17:05;10.90;95.80
51007;DHT22;37034;47.886;-3.904;2023-02-15T05:19:31;10.80;96.00
51007;DHT22;37034;47.886;-3.904;2023-02-15T05:21:57;10.90;96.10
51007;DHT22;37034;47.886;-3.904;2023-02-15T05:24:23;10.80;96.00
51007;DHT22;37034;47.886;-3.904;2023-02-15T05:27:10;10.80;95.90
51007;DHT22;37034;47.886;-3.904;2023-02-15T05:29:55;10.70;95.90
51007;DHT22;37034;47.886;-3.904;2023-02-15T05:32:21;10.80;96.00
51007;DHT22;37034;47.886;-3.904;2023-02-15T05:34:46;10.70;96.00
51007;DHT22;37034;47.886;-3.904;2023-02-15T05:37:12;10.60;96.00
51007;DHT22;37034;47.886;-3.904;2023-02-15T05:39:38;10.60;96.20
51007;DHT22;37034;47.886;-3.904;2023-02-15T05:42:03;10.60;96.20
51007;DHT22;37034;47.886;-3.904;2023-02-15T05:44:29;10.60;96.30
51007;DHT22;37034;47.886;-3.904;2023-02-15T05:46:55;10.70;96.20
51007;DHT22;37034;47.886;-3.904;2023-02-15T05:49:21;10.60;96.10
51007;DHT22;37034;47.886;-3.904;2023-02-15T05:51:46;10.40;96.00
51007;DHT22;37034;47.886;-3.904;2023-02-15T05:54:12;10.30;96.10
51007;DHT22;37034;47.886;-3.904;2023-02-15T05:56:38;10.30;96.00
51007;DHT22;37034;47.886;-3.904;2023-02-15T05:59:03;10.30;95.90
51007;DHT22;37034;47.886;-3.904;2023-02-15T06:01:29;10.30;96.00
51007;DHT22;37034;47.886;-3.904;2023-02-15T06:03:55;10.20;95.90
51007;DHT22;37034;47.886;-3.904;2023-02-15T06:06:21;10.20;95.90
51007;DHT22;37034;47.886;-3.904;2023-02-15T06:08:48;10.20;96.00
51007;DHT22;37034;47.886;-3.904;2023-02-15T06:11:14;10.30;96.30
51007;DHT22;37034;47.886;-3.904;2023-02-15T06:13:39;10.10;96.20
51007;DHT22;37034;47.886;-3.904;2023-02-15T06:16:07;10.20;96.20
51007;DHT22;37034;47.886;-3.904;2023-02-15T06:18:33;10.10;95.90
51007;DHT22;37034;47.886;-3.904;2023-02-15T06:20:59;10.10;95.90
51007;DHT22;37034;47.886;-3.904;2023-02-15T06:23:25;10.10;96.20
51007;DHT22;37034;47.886;-3.904;2023-02-15T06:25:51;10.70;96.40
51007;DHT22;37034;47.886;-3.904;2023-02-15T06:28:17;10.00;96.30
51007;DHT22;37034;47.886;-3.904;2023-02-15T06:30:42;10.00;96.10
51007;DHT22;37034;47.886;-3.904;2023-02-15T06:33:08;10.10;96.40
51007;DHT22;37034;47.886;-3.904;2023-02-15T06:35:34;10.00;96.20
51007;DHT22;37034;47.886;-3.904;2023-02-15T06:37:59;10.00;96.30
51007;DHT22;37034;47.886;-3.904;2023-02-15T06:40:25;9.90;96.20
51007;DHT22;37034;47.886;-3.904;2023-02-15T06:42:51;9.90;96.30
51007;DHT22;37034;47.886;-3.904;2023-02-15T06:45:17;9.90;96.40
51007;DHT22;37034;47.886;-3.904;2023-02-15T06:47:44;9.90;96.30
51007;DHT22;37034;47.886;-3.904;2023-02-15T06:50:10;9.90;96.10
51007;DHT22;37034;47.886;-3.904;2023-02-15T06:52:35;9.90;96.20
51007;DHT22;37034;47.886;-3.904;2023-02-15T06:55:01;9.90;96.20
51007;DHT22;37034;47.886;-3.904;2023-02-15T06:57:27;9.90;96.00
51007;DHT22;37034;47.886;-3.904;2023-02-15T06:59:53;9.80;96.30
51007;DHT22;37034;47.886;-3.904;2023-02-15T07:02:18;9.80;96.10
51007;DHT22;37034;47.886;-3.904;2023-02-15T07:04:44;9.90;96.20
51007;DHT22;37034;47.886;-3.904;2023-02-15T07:07:11;10.10;96.40
51007;DHT22;37034;47.886;-3.904;2023-02-15T07:09:37;9.80;96.20
51007;DHT22;37034;47.886;-3.904;2023-02-15T07:12:03;9.80;96.20
51007;DHT22;37034;47.886;-3.904;2023-02-15T07:14:47;9.80;96.00
51007;DHT22;37034;47.886;-3.904;2023-02-15T07:17:13;9.80;95.90
51007;DHT22;37034;47.886;-3.904;2023-02-15T07:19:39;9.70;96.00
51007;DHT22;37034;47.886;-3.904;2023-02-15T07:22:04;9.70;96.00
51007;DHT22;37034;47.886;-3.904;2023-02-15T07:24:30;9.70;96.00
51007;DHT22;37034;47.886;-3.904;2023-02-15T07:26:56;9.70;96.00
51007;DHT22;37034;47.886;-3.904;2023-02-15T07:29:23;9.60;96.10
51007;DHT22;37034;47.886;-3.904;2023-02-15T07:31:49;9.60;96.00
51007;DHT22;37034;47.886;-3.904;2023-02-15T07:34:15;9.60;96.10
51007;DHT22;37034;47.886;-3.904;2023-02-15T07:36:41;9.60;96.10
51007;DHT22;37034;47.886;-3.904;2023-02-15T07:39:07;9.60;96.10
51007;DHT22;37034;47.886;-3.904;2023-02-15T07:41:33;9.70;96.10
51007;DHT22;37034;47.886;-3.904;2023-02-15T07:43:58;9.70;96.10
51007;DHT22;37034;47.886;-3.904;2023-02-15T07:46:24;9.70;96.10
51007;DHT22;37034;47.886;-3.904;2023-02-15T07:48:51;9.70;96.10
51007;DHT22;37034;47.886;-3.904;2023-02-15T07:51:32;9.70;96.10
51007;DHT22;37034;47.886;-3.904;2023-02-15T07:54:18;9.70;95.90
51007;DHT22;37034;47.886;-3.904;2023-02-15T07:56:43;9.80;96.00
51007;DHT22;37034;47.886;-3.904;2023-02-15T07:59:09;9.70;96.00
51007;DHT22;37034;47.886;-3.904;2023-02-15T08:01:36;9.80;96.00
51007;DHT22;37034;47.886;-3.904;2023-02-15T08:04:04;9.70;96.10
51007;DHT22;37034;47.886;-3.904;2023-02-15T08:06:34;9.80;96.10
51007;DHT22;37034;47.886;-3.904;2023-02-15T08:09:03;9.70;96.00
51007;DHT22;37034;47.886;-3.904;2023-02-15T08:11:31;9.80;96.10
51007;DHT22;37034;47.886;-3.904;2023-02-15T08:14:11;9.80;96.10
51007;DHT22;37034;47.886;-3.904;2023-02-15T08:16:50;9.90;96.10
51007;DHT22;37034;47.886;-3.904;2023-02-15T08:19:19;10.00;96.10
51007;DHT22;37034;47.886;-3.904;2023-02-15T08:21:48;10.00;96.30
51007;DHT22;37034;47.886;-3.904;2023-02-15T08:24:16;10.00;96.20
51007;DHT22;37034;47.886;-3.904;2023-02-15T08:26:43;10.10;96.20
51007;DHT22;37034;47.886;-3.904;2023-02-15T08:29:10;10.20;96.30
51007;DHT22;37034;47.886;-3.904;2023-02-15T08:31:36;10.20;96.30
51007;DHT22;37034;47.886;-3.904;2023-02-15T08:34:03;10.30;96.50
51007;DHT22;37034;47.886;-3.904;2023-02-15T08:36:30;10.40;96.40
51007;DHT22;37034;47.886;-3.904;2023-02-15T08:39:01;10.40;96.40
51007;DHT22;37034;47.886;-3.904;2023-02-15T08:41:28;10.50;96.40
51007;DHT22;37034;47.886;-3.904;2023-02-15T08:43:59;10.60;96.40
51007;DHT22;37034;47.886;-3.904;2023-02-15T08:46:30;10.70;96.40
51007;DHT22;37034;47.886;-3.904;2023-02-15T08:48:57;10.90;96.50
51007;DHT22;37034;47.886;-3.904;2023-02-15T08:51:29;10.80;96.50
51007;DHT22;37034;47.886;-3.904;2023-02-15T08:53:56;10.90;96.50
51007;DHT22;37034;47.886;-3.904;2023-02-15T08:56:24;11.00;96.60
51007;DHT22;37034;47.886;-3.904;2023-02-15T08:58:52;11.00;96.50
51007;DHT22;37034;47.886;-3.904;2023-02-15T09:01:21;11.00;96.60
51007;DHT22;37034;47.886;-3.904;2023-02-15T09:03:49;11.10;96.70
51007;DHT22;37034;47.886;-3.904;2023-02-15T09:06:16;11.20;96.60
51007;DHT22;37034;47.886;-3.904;2023-02-15T09:08:42;11.30;96.40
51007;DHT22;37034;47.886;-3.904;2023-02-15T09:11:16;11.70;96.70
51007;DHT22;37034;47.886;-3.904;2023-02-15T09:13:49;11.30;96.50
51007;DHT22;37034;47.886;-3.904;2023-02-15T09:16:15;11.50;96.50
51007;DHT22;37034;47.886;-3.904;2023-02-15T09:18:43;11.50;96.60
51007;DHT22;37034;47.886;-3.904;2023-02-15T09:21:14;11.60;96.60
51007;DHT22;37034;47.886;-3.904;2023-02-15T09:23:42;11.70;96.40
51007;DHT22;37034;47.886;-3.904;2023-02-15T09:26:16;11.70;96.50
51007;DHT22;37034;47.886;-3.904;2023-02-15T09:28:42;11.80;96.60
51007;DHT22;37034;47.886;-3.904;2023-02-15T09:31:18;11.90;96.70
51007;DHT22;37034;47.886;-3.904;2023-02-15T09:33:46;12.00;96.60
51007;DHT22;37034;47.886;-3.904;2023-02-15T09:36:18;12.20;96.40
51007;DHT22;37034;47.886;-3.904;2023-02-15T09:38:45;12.20;96.40
51007;DHT22;37034;47.886;-3.904;2023-02-15T09:53:14;12.70;96.50
51007;DHT22;37034;47.886;-3.904;2023-02-15T10:10:24;13.70;96.40
51007;DHT22;37034;47.886;-3.904;2023-02-15T10:16:01;13.80;96.60
51007;DHT22;37034;47.886;-3.904;2023-02-15T10:24:27;14.40;96.40
51007;DHT22;37034;47.886;-3.904;2023-02-15T10:27:58;14.40;96.30
51007;DHT22;37034;47.886;-3.904;2023-02-15T10:30:34;15.10;96.30
51007;DHT22;37034;47.886;-3.904;2023-02-15T10:42:59;14.80;96.00
51007;DHT22;37034;47.886;-3.904;2023-02-15T10:45:32;14.90;96.00
51007;DHT22;37034;47.886;-3.904;2023-02-15T10:51:00;15.40;96.10
51007;DHT22;37034;47.886;-3.904;2023-02-15T11:05:02;15.60;96.50
51007;DHT22;37034;47.886;-3.904;2023-02-15T11:07:38;15.50;96.10
51007;DHT22;37034;47.886;-3.904;2023-02-15T11:10:29;15.60;96.20
51007;DHT22;37034;47.886;-3.904;2023-02-15T11:12:57;15.70;95.90
51007;DHT22;37034;47.886;-3.904;2023-02-15T11:21:03;15.70;96.00
51007;DHT22;37034;47.886;-3.904;2023-02-15T11:23:32;16.00;96.20
51007;DHT22;37034;47.886;-3.904;2023-02-15T11:26:03;16.20;96.50
51007;DHT22;37034;47.886;-3.904;2023-02-15T11:28:33;16.10;96.20
51007;DHT22;37034;47.886;-3.904;2023-02-15T11:31:09;16.00;96.30
51007;DHT22;37034;47.886;-3.904;2023-02-15T11:33:37;16.20;96.30
51007;DHT22;37034;47.886;-3.904;2023-02-15T11:36:32;16.20;96.20
51007;DHT22;37034;47.886;-3.904;2023-02-15T11:39:02;16.50;96.20
51007;DHT22;37034;47.886;-3.904;2023-02-15T11:41:33;16.30;96.30
51007;DHT22;37034;47.886;-3.904;2023-02-15T11:44:22;16.30;96.30
51007;DHT22;37034;47.886;-3.904;2023-02-15T11:46:49;16.30;96.20
51007;DHT22;37034;47.886;-3.904;2023-02-15T11:49:31;16.50;96.70
51007;DHT22;37034;47.886;-3.904;2023-02-15T11:51:58;16.50;96.50
51007;DHT22;37034;47.886;-3.904;2023-02-15T11:54:33;16.60;96.30
51007;DHT22;37034;47.886;-3.904;2023-02-15T11:59:38;16.50;96.30
51007;DHT22;37034;47.886;-3.904;2023-02-15T12:02:24;16.60;96.70
51007;DHT22;37034;47.886;-3.904;2023-02-15T12:05:00;16.80;96.90
51007;DHT22;37034;47.886;-3.904;2023-02-15T12:07:42;16.60;96.70
51007;DHT22;37034;47.886;-3.904;2023-02-15T12:10:24;16.70;96.40
51007;DHT22;37034;47.886;-3.904;2023-02-15T12:13:11;16.70;96.60
51007;DHT22;37034;47.886;-3.904;2023-02-15T12:15:38;17.10;96.80
51007;DHT22;37034;47.886;-3.904;2023-02-15T12:18:05;17.00;97.00
51007;DHT22;37034;47.886;-3.904;2023-02-15T12:20:42;17.10;96.90
51007;DHT22;37034;47.886;-3.904;2023-02-15T12:23:15;17.20;96.80
51007;DHT22;37034;47.886;-3.904;2023-02-15T12:25:43;16.80;96.90
51007;DHT22;37034;47.886;-3.904;2023-02-15T12:28:40;16.90;96.70
51007;DHT22;37034;47.886;-3.904;2023-02-15T12:34:00;17.10;96.50
51007;DHT22;37034;47.886;-3.904;2023-02-15T12:36:47;17.30;96.70
51007;DHT22;37034;47.886;-3.904;2023-02-15T12:39:24;17.30;96.80
51007;DHT22;37034;47.886;-3.904;2023-02-15T12:42:00;17.00;96.50
51007;DHT22;37034;47.886;-3.904;2023-02-15T12:45:28;17.20;96.80
51007;DHT22;37034;47.886;-3.904;2023-02-15T12:48:17;17.30;96.60
51007;DHT22;37034;47.886;-3.904;2023-02-15T12:50:45;17.10;96.50
51007;DHT22;37034;47.886;-3.904;2023-02-15T12:53:20;17.20;96.70
51007;DHT22;37034;47.886;-3.904;2023-02-15T12:55:56;17.10;96.40
51007;DHT22;37034;47.886;-3.904;2023-02-15T12:58:33;17.30;96.40
51007;DHT22;37034;47.886;-3.904;2023-02-15T13:01:12;17.70;96.70
51007;DHT22;37034;47.886;-3.904;2023-02-15T13:03:59;17.30;96.70
51007;DHT22;37034;47.886;-3.904;2023-02-15T13:06:27;17.30;96.70
51007;DHT22;37034;47.886;-3.904;2023-02-15T13:09:05;17.30;96.70
51007;DHT22;37034;47.886;-3.904;2023-02-15T13:11:32;17.30;96.50
51007;DHT22;37034;47.886;-3.904;2023-02-15T13:14:02;17.40;96.60
51007;DHT22;37034;47.886;-3.904;2023-02-15T13:18:54;17.40;96.40
51007;DHT22;37034;47.886;-3.904;2023-02-15T13:21:33;17.50;96.60
51007;DHT22;37034;47.886;-3.904;2023-02-15T13:24:07;17.40;96.10
51007;DHT22;37034;47.886;-3.904;2023-02-15T13:26:37;17.20;96.10
51007;DHT22;37034;47.886;-3.904;2023-02-15T13:29:15;17.40;96.40
51007;DHT22;37034;47.886;-3.904;2023-02-15T13:31:46;17.40;96.30
51007;DHT22;37034;47.886;-3.904;2023-02-15T13:34:24;17.30;96.60
51007;DHT22;37034;47.886;-3.904;2023-02-15T13:42:37;17.30;96.40
51007;DHT22;37034;47.886;-3.904;2023-02-15T14:01:36;17.20;96.70
51007;DHT22;37034;47.886;-3.904;2023-02-15T14:12:26;17.40;97.10
51007;DHT22;37034;47.886;-3.904;2023-02-15T14:20:58;17.40;96.70
51007;DHT22;37034;47.886;-3.904;2023-02-15T14:23:58;17.30;96.50
51007;DHT22;37034;47.886;-3.904;2023-02-15T14:31:57;17.50;96.70
51007;DHT22;37034;47.886;-3.904;2023-02-15T14:34:52;17.70;96.70
51007;DHT22;37034;47.886;-3.904;2023-02-15T14:40:54;17.60;96.70
51007;DHT22;37034;47.886;-3.904;2023-02-15T14:48:55;17.20;96.70
51007;DHT22;37034;47.886;-3.904;2023-02-15T14:59:53;17.40;96.90
51007;DHT22;37034;47.886;-3.904;2023-02-15T15:02:29;17.50;96.80
51007;DHT22;37034;47.886;-3.904;2023-02-15T15:05:11;17.50;96.80
51007;DHT22;37034;47.886;-3.904;2023-02-15T15:07:53;17.50;96.70
51007;DHT22;37034;47.886;-3.904;2023-02-15T15:12:53;17.40;96.60
51007;DHT22;37034;47.886;-3.904;2023-02-15T15:18:05;17.30;96.90
51007;DHT22;37034;47.886;-3.904;2023-02-15T15:20:51;17.30;96.90
51007;DHT22;37034;47.886;-3.904;2023-02-15T15:40:18;17.20;96.70
51007;DHT22;37034;47.886;-3.904;2023-02-15T15:42:24;17.10;96.90
51007;DHT22;37034;47.886;-3.904;2023-02-15T15:50:42;17.00;96.90
51007;DHT22;37034;47.886;-3.904;2023-02-15T15:53:20;17.00;97.10
51007;DHT22;37034;47.886;-3.904;2023-02-15T15:55:48;16.90;97.00
51007;DHT22;37034;47.886;-3.904;2023-02-15T15:58:17;17.00;97.10
51007;DHT22;37034;47.886;-3.904;2023-02-15T16:01:07;16.90;97.10
51007;DHT22;37034;47.886;-3.904;2023-02-15T16:03:34;16.90;97.10
51007;DHT22;37034;47.886;-3.904;2023-02-15T16:05:59;16.90;97.20
51007;DHT22;37034;47.886;-3.904;2023-02-15T16:08:37;16.90;97.20
51007;DHT22;37034;47.886;-3.904;2023-02-15T16:11:29;16.90;97.20
51007;DHT22;37034;47.886;-3.904;2023-02-15T16:13:55;16.80;97.40
51007;DHT22;37034;47.886;-3.904;2023-02-15T16:16:24;17.00;97.20
51007;DHT22;37034;47.886;-3.904;2023-02-15T16:18:54;16.60;97.20
51007;DHT22;37034;47.886;-3.904;2023-02-15T16:21:29;16.60;97.20
51007;DHT22;37034;47.886;-3.904;2023-02-15T16:24:42;16.50;97.20
51007;DHT22;37034;47.886;-3.904;2023-02-15T16:28:05;16.50;97.40
51007;DHT22;37034;47.886;-3.904;2023-02-15T16:30:34;16.40;97.40
51007;DHT22;37034;47.886;-3.904;2023-02-15T16:35:29;16.40;97.50
51007;DHT22;37034;47.886;-3.904;2023-02-15T16:37:55;16.40;97.50
51007;DHT22;37034;47.886;-3.904;2023-02-15T16:42:56;16.40;97.60
51007;DHT22;37034;47.886;-3.904;2023-02-15T16:45:24;16.30;97.50
51007;DHT22;37034;47.886;-3.904;2023-02-15T16:47:55;16.30;97.60
51007;DHT22;37034;47.886;-3.904;2023-02-15T16:50:33;16.30;97.70
51007;DHT22;37034;47.886;-3.904;2023-02-15T16:53:01;16.20;97.70
51007;DHT22;37034;47.886;-3.904;2023-02-15T16:55:30;16.20;97.70
51007;DHT22;37034;47.886;-3.904;2023-02-15T16:58:00;16.20;97.80
51007;DHT22;37034;47.886;-3.904;2023-02-15T17:00:31;16.10;97.70
51007;DHT22;37034;47.886;-3.904;2023-02-15T17:03:05;16.10;97.70
51007;DHT22;37034;47.886;-3.904;2023-02-15T17:05:47;16.10;97.80
51007;DHT22;37034;47.886;-3.904;2023-02-15T17:13:39;16.10;98.20
51007;DHT22;37034;47.886;-3.904;2023-02-15T17:16:27;16.10;98.00
51007;DHT22;37034;47.886;-3.904;2023-02-15T17:18:54;16.10;97.90
51007;DHT22;37034;47.886;-3.904;2023-02-15T17:21:27;16.10;97.90
51007;DHT22;37034;47.886;-3.904;2023-02-15T17:24:00;16.10;97.90
51007;DHT22;37034;47.886;-3.904;2023-02-15T17:26:34;16.10;97.90
51007;DHT22;37034;47.886;-3.904;2023-02-15T17:31:55;16.20;98.00
51007;DHT22;37034;47.886;-3.904;2023-02-15T17:37:28;16.10;98.30
51007;DHT22;37034;47.886;-3.904;2023-02-15T17:39:56;16.20;98.00
51007;DHT22;37034;47.886;-3.904;2023-02-15T17:42:22;16.10;98.00
51007;DHT22;37034;47.886;-3.904;2023-02-15T17:44:48;16.10;98.10
51007;DHT22;37034;47.886;-3.904;2023-02-15T17:47:22;16.20;98.10
51007;DHT22;37034;47.886;-3.904;2023-02-15T17:49:50;16.10;98.00
51007;DHT22;37034;47.886;-3.904;2023-02-15T17:52:16;16.00;98.20
51007;DHT22;37034;47.886;-3.904;2023-02-15T17:54:43;16.10;98.20
51007;DHT22;37034;47.886;-3.904;2023-02-15T17:57:29;16.00;98.20
51007;DHT22;37034;47.886;-3.904;2023-02-15T17:59:55;16.10;98.20
51007;DHT22;37034;47.886;-3.904;2023-02-15T18:02:40;16.10;98.40
51007;DHT22;37034;47.886;-3.904;2023-02-15T18:05:24;16.10;98.20
51007;DHT22;37034;47.886;-3.904;2023-02-15T18:08:12;16.00;98.10
51007;DHT22;37034;47.886;-3.904;2023-02-15T18:10:57;15.90;98.20
51007;DHT22;37034;47.886;-3.904;2023-02-15T18:13:41;15.90;98.20
51007;DHT22;37034;47.886;-3.904;2023-02-15T18:16:12;15.90;98.30
51007;DHT22;37034;47.886;-3.904;2023-02-15T18:18:38;15.80;98.30
51007;DHT22;37034;47.886;-3.904;2023-02-15T18:21:04;15.90;98.50
51007;DHT22;37034;47.886;-3.904;2023-02-15T18:23:34;15.80;98.20
51007;DHT22;37034;47.886;-3.904;2023-02-15T18:26:00;15.80;98.30
51007;DHT22;37034;47.886;-3.904;2023-02-15T18:28:25;15.80;98.30
51007;DHT22;37034;47.886;-3.904;2023-02-15T18:30:51;15.80;98.40
51007;DHT22;37034;47.886;-3.904;2023-02-15T18:33:39;15.80;98.40
51007;DHT22;37034;47.886;-3.904;2023-02-15T18:36:22;15.80;98.40
51007;DHT22;37034;47.886;-3.904;2023-02-15T18:38:49;15.70;98.30
51007;DHT22;37034;47.886;-3.904;2023-02-15T18:41:19;15.80;98.40
51007;DHT22;37034;47.886;-3.904;2023-02-15T18:43:46;15.70;98.40
51007;DHT22;37034;47.886;-3.904;2023-02-15T18:46:14;15.70;98.40
51007;DHT22;37034;47.886;-3.904;2023-02-15T18:48:40;15.70;98.40
51007;DHT22;37034;47.886;-3.904;2023-02-15T18:51:19;15.60;98.40
51007;DHT22;37034;47.886;-3.904;2023-02-15T18:53:46;15.70;98.60
51007;DHT22;37034;47.886;-3.904;2023-02-15T18:56:17;15.80;98.60
51007;DHT22;37034;47.886;-3.904;2023-02-15T18:58:44;15.70;98.60
51007;DHT22;37034;47.886;-3.904;2023-02-15T19:01:14;15.70;98.60
51007;DHT22;37034;47.886;-3.904;2023-02-15T19:03:45;15.60;98.60
51007;DHT22;37034;47.886;-3.904;2023-02-15T19:06:13;15.60;98.60
51007;DHT22;37034;47.886;-3.904;2023-02-15T19:08:41;15.60;98.60
51007;DHT22;37034;47.886;-3.904;2023-02-15T19:11:19;15.80;98.60
51007;DHT22;37034;47.886;-3.904;2023-02-15T19:13:46;15.70;98.60
51007;DHT22;37034;47.886;-3.904;2023-02-15T19:16:34;15.70;98.70
51007;DHT22;37034;47.886;-3.904;2023-02-15T19:18:59;15.90;98.90
51007;DHT22;37034;47.886;-3.904;2023-02-15T19:21:27;15.80;98.70
51007;DHT22;37034;47.886;-3.904;2023-02-15T19:23:57;15.70;98.60
51007;DHT22;37034;47.886;-3.904;2023-02-15T19:26:24;15.70;98.70